Pulau Tioman — 3EYO9 — position and weather

sailwx.info

Track history (hours):
 
Tides and Currents Weather Stations Pressure Air Temp Water Temp Dewpoint Dewpoint Depression Visibility Wind Speed Wind Dir Waves Ship Positions

Pulau Tioman

Last reported at 2014-Dec-20 03:30 UTC. Time now 2014-Dec-20 03:44 UTC.
Position N 34°42' E 135°15'.

Length 120 m; draft 5.6 m.

Type: Cargo ship. MMSI: 356613000.

Date/timePositionNaut miles runAvg speedWind from/ knotsBaromVisibWave heightAir tempDewpointWater temp
2014-Dec-20 03:30N 34°42' E 135°15'0 0.0
2014-Dec-20 02:30N 34°42' E 135°15'0 0.0
2014-Dec-20 01:30N 34°42' E 135°15'0 0.0
2014-Dec-20 00:30N 34°42' E 135°15'0 0.0
2014-Dec-19 23:18N 34°42' E 135°15'0 0.0
2014-Dec-19 22:33N 34°42' E 135°15'3 3.2
2014-Dec-19 21:33N 34°39' E 135°16'7 7.5
2014-Dec-19 20:34N 34°32' E 135°13'1413.7
2014-Dec-19 19:33N 34°22' E 135°01'1514.8
2014-Dec-19 18:33N 34°07' E 134°59'241 6.0
2014-Dec-18 02:23N 35°08' E 139°43'7 9.1
2014-Dec-18 01:34N 35°14' E 139°46'1111.0
2014-Dec-18 00:34N 35°25' E 139°42'2 2.3
2014-Dec-17 23:32N 35°27' E 139°41'0 0.0
2014-Dec-17 22:32N 35°27' E 139°41'0 0.0
2014-Dec-17 21:32N 35°27' E 139°41'0 0.0
2014-Dec-17 20:32N 35°27' E 139°41'0 0.0
2014-Dec-17 19:32N 35°27' E 139°41'0 0.0
2014-Dec-17 18:32N 35°27' E 139°41'0 0.0
2014-Dec-17 17:32N 35°27' E 139°41'0 0.0
2014-Dec-17 16:32N 35°27' E 139°41'0 0.0
2014-Dec-17 15:29N 35°27' E 139°41'0 0.0
2014-Dec-17 14:32N 35°27' E 139°41'0 0.0
2014-Dec-17 13:32N 35°27' E 139°41'0 0.0
2014-Dec-17 12:26N 35°27' E 139°41'0 0.0
2014-Dec-17 11:32N 35°27' E 139°41'0 0.0
2014-Dec-17 10:32N 35°27' E 139°41'0 0.0
2014-Dec-17 09:32N 35°27' E 139°41'0 0.0
2014-Dec-17 08:32N 35°27' E 139°41'0 0.0
2014-Dec-17 07:32N 35°27' E 139°41'0 0.0
2014-Dec-17 06:32N 35°27' E 139°41'0 0.0
2014-Dec-17 05:32N 35°27' E 139°41'0 0.0
2014-Dec-17 04:32N 35°27' E 139°41'0 0.0
2014-Dec-17 03:32N 35°27' E 139°41'0 0.0
2014-Dec-17 02:32N 35°27' E 139°41'0 0.0
2014-Dec-17 01:29N 35°27' E 139°41'0 0.0
2014-Dec-17 00:32N 35°27' E 139°41'0 0.0
2014-Dec-16 23:32N 35°27' E 139°41'0 0.0
2014-Dec-16 22:32N 35°27' E 139°41'0 0.0
2014-Dec-16 21:32N 35°27' E 139°41'0 0.0
2014-Dec-16 20:29N 35°27' E 139°41'0 0.0
2014-Dec-16 19:32N 35°27' E 139°41'0 0.0
2014-Dec-16 18:32N 35°27' E 139°41'0 0.0
2014-Dec-16 17:26N 35°27' E 139°41'0 0.0
2014-Dec-16 16:32N 35°27' E 139°41'0 0.0
2014-Dec-16 15:32N 35°27' E 139°41'0 0.0
2014-Dec-16 14:32N 35°27' E 139°41'0 0.0
2014-Dec-16 13:29N 35°27' E 139°41'0 0.0
2014-Dec-16 12:32N 35°27' E 139°41'0 0.0
2014-Dec-16 11:32N 35°27' E 139°41'0 0.0
2014-Dec-16 10:32N 35°27' E 139°41'0 0.0
2014-Dec-16 09:32N 35°27' E 139°41'2 2.5
2014-Dec-16 08:33N 35°25' E 139°43'1010.4
2014-Dec-16 07:33N 35°15' E 139°47'1313.1
2014-Dec-16 06:33N 35°03' E 139°41'24311.0
2014-Dec-15 08:31N 33°53' E 134°59'1314.0
2014-Dec-15 07:33N 34°07' E 134°58'1414.0
2014-Dec-15 06:33N 34°21' E 134°59'1414.4
2014-Dec-15 05:33N 34°35' E 135°03'1111.2
2014-Dec-15 04:33N 34°38' E 134°50'5 0.9
2014-Dec-14 23:33N 34°43' E 134°51'3 2.3
2014-Dec-14 22:26N 34°40' E 134°50'0 0.0
2014-Dec-14 21:32N 34°40' E 134°50'0 0.0
2014-Dec-14 20:32N 34°40' E 134°50'0 0.0
2014-Dec-14 19:20N 34°40' E 134°50'0 0.0
2014-Dec-14 18:26N 34°40' E 134°50'0 0.0
2014-Dec-14 17:26N 34°40' E 134°50'0 0.0
2014-Dec-14 16:32N 34°40' E 134°50'0 0.0
2014-Dec-14 15:26N 34°40' E 134°50'0 0.0
2014-Dec-14 14:32N 34°40' E 134°50'0 0.0
2014-Dec-14 13:32N 34°40' E 134°50'0 0.0
2014-Dec-14 12:25N 34°40' E 134°50'0 0.0
2014-Dec-14 11:32N 34°40' E 134°50'0 0.0
2014-Dec-14 10:08N 34°40' E 134°50'0 0.0
2014-Dec-14 09:25N 34°40' E 134°50'0 0.0
2014-Dec-14 08:31N 34°40' E 134°50'0 0.0
2014-Dec-14 06:14N 34°40' E 134°50'0 0.0
2014-Dec-14 05:20N 34°40' E 134°50'0 0.0
2014-Dec-14 03:25N 34°40' E 134°50'0 0.0
2014-Dec-14 01:26N 34°40' E 134°50'1 1.5
2014-Dec-14 00:33N 34°39' E 134°48'4 4.1
2014-Dec-13 23:33N 34°38' E 134°44'  
Track history (hours):
 
Tides and Currents Weather Stations Pressure Air Temp Water Temp Dewpoint Dewpoint Depression Visibility Wind Speed Wind Dir Waves Ship Positions

Pulau Tioman

Last reported at 2014-Dec-20 03:30 UTC. Time now 2014-Dec-20 03:44 UTC.
Position N 34°42' E 135°15'.

Length 120 m; draft 5.6 m.

Type: Cargo ship. MMSI: 356613000.

Date/timePositionNaut miles runAvg speedWind from/ knotsBaromVisibWave heightAir tempDewpointWater temp
2014-Dec-20 03:30N 34°42' E 135°15'0 0.0
2014-Dec-20 02:30N 34°42' E 135°15'0 0.0
2014-Dec-20 01:30N 34°42' E 135°15'0 0.0
2014-Dec-20 00:30N 34°42' E 135°15'0 0.0
2014-Dec-19 23:18N 34°42' E 135°15'0 0.0
2014-Dec-19 22:33N 34°42' E 135°15'3 3.2
2014-Dec-19 21:33N 34°39' E 135°16'7 7.5
2014-Dec-19 20:34N 34°32' E 135°13'1413.7
2014-Dec-19 19:33N 34°22' E 135°01'1514.8
2014-Dec-19 18:33N 34°07' E 134°59'241 6.0
2014-Dec-18 02:23N 35°08' E 139°43'7 9.1
2014-Dec-18 01:34N 35°14' E 139°46'1111.0
2014-Dec-18 00:34N 35°25' E 139°42'2 2.3
2014-Dec-17 23:32N 35°27' E 139°41'0 0.0
2014-Dec-17 22:32N 35°27' E 139°41'0 0.0
2014-Dec-17 21:32N 35°27' E 139°41'0 0.0
2014-Dec-17 20:32N 35°27' E 139°41'0 0.0
2014-Dec-17 19:32N 35°27' E 139°41'0 0.0
2014-Dec-17 18:32N 35°27' E 139°41'0 0.0
2014-Dec-17 17:32N 35°27' E 139°41'0 0.0
2014-Dec-17 16:32N 35°27' E 139°41'0 0.0
2014-Dec-17 15:29N 35°27' E 139°41'0 0.0
2014-Dec-17 14:32N 35°27' E 139°41'0 0.0
2014-Dec-17 13:32N 35°27' E 139°41'0 0.0
2014-Dec-17 12:26N 35°27' E 139°41'0 0.0
2014-Dec-17 11:32N 35°27' E 139°41'0 0.0
2014-Dec-17 10:32N 35°27' E 139°41'0 0.0
2014-Dec-17 09:32N 35°27' E 139°41'0 0.0
2014-Dec-17 08:32N 35°27' E 139°41'0 0.0
2014-Dec-17 07:32N 35°27' E 139°41'0 0.0
2014-Dec-17 06:32N 35°27' E 139°41'0 0.0
2014-Dec-17 05:32N 35°27' E 139°41'0 0.0
2014-Dec-17 04:32N 35°27' E 139°41'0 0.0
2014-Dec-17 03:32N 35°27' E 139°41'0 0.0
2014-Dec-17 02:32N 35°27' E 139°41'0 0.0
2014-Dec-17 01:29N 35°27' E 139°41'0 0.0
2014-Dec-17 00:32N 35°27' E 139°41'0 0.0
2014-Dec-16 23:32N 35°27' E 139°41'0 0.0
2014-Dec-16 22:32N 35°27' E 139°41'0 0.0
2014-Dec-16 21:32N 35°27' E 139°41'0 0.0
2014-Dec-16 20:29N 35°27' E 139°41'0 0.0
2014-Dec-16 19:32N 35°27' E 139°41'0 0.0
2014-Dec-16 18:32N 35°27' E 139°41'0 0.0
2014-Dec-16 17:26N 35°27' E 139°41'0 0.0
2014-Dec-16 16:32N 35°27' E 139°41'0 0.0
2014-Dec-16 15:32N 35°27' E 139°41'0 0.0
2014-Dec-16 14:32N 35°27' E 139°41'0 0.0
2014-Dec-16 13:29N 35°27' E 139°41'0 0.0
2014-Dec-16 12:32N 35°27' E 139°41'0 0.0
2014-Dec-16 11:32N 35°27' E 139°41'0 0.0
2014-Dec-16 10:32N 35°27' E 139°41'0 0.0
2014-Dec-16 09:32N 35°27' E 139°41'2 2.5
2014-Dec-16 08:33N 35°25' E 139°43'1010.4
2014-Dec-16 07:33N 35°15' E 139°47'1313.1
2014-Dec-16 06:33N 35°03' E 139°41'24311.0
2014-Dec-15 08:31N 33°53' E 134°59'1314.0
2014-Dec-15 07:33N 34°07' E 134°58'1414.0
2014-Dec-15 06:33N 34°21' E 134°59'1414.4
2014-Dec-15 05:33N 34°35' E 135°03'1111.2
2014-Dec-15 04:33N 34°38' E 134°50'5 0.9
2014-Dec-14 23:33N 34°43' E 134°51'3 2.3
2014-Dec-14 22:26N 34°40' E 134°50'0 0.0
2014-Dec-14 21:32N 34°40' E 134°50'0 0.0
2014-Dec-14 20:32N 34°40' E 134°50'0 0.0
2014-Dec-14 19:20N 34°40' E 134°50'0 0.0
2014-Dec-14 18:26N 34°40' E 134°50'0 0.0
2014-Dec-14 17:26N 34°40' E 134°50'0 0.0
2014-Dec-14 16:32N 34°40' E 134°50'0 0.0
2014-Dec-14 15:26N 34°40' E 134°50'0 0.0
2014-Dec-14 14:32N 34°40' E 134°50'0 0.0
2014-Dec-14 13:32N 34°40' E 134°50'0 0.0
2014-Dec-14 12:25N 34°40' E 134°50'0 0.0
2014-Dec-14 11:32N 34°40' E 134°50'0 0.0
2014-Dec-14 10:08N 34°40' E 134°50'0 0.0
2014-Dec-14 09:25N 34°40' E 134°50'0 0.0
2014-Dec-14 08:31N 34°40' E 134°50'0 0.0
2014-Dec-14 06:14N 34°40' E 134°50'0 0.0
2014-Dec-14 05:20N 34°40' E 134°50'0 0.0
2014-Dec-14 03:25N 34°40' E 134°50'0 0.0
2014-Dec-14 01:26N 34°40' E 134°50'1 1.5
2014-Dec-14 00:33N 34°39' E 134°48'4 4.1
2014-Dec-13 23:33N 34°38' E 134°44'  

Dump ship's entire track history